NCAR-RAP Real-Time Weather Data

Output produced by METARs form (27 May 2017  08:20 UTC)
found at http://weather.rap.ucar.edu/surface/
 
KDCA 270752Z 00000KT 10SM BKN060 17/15 A2993 RMK AO2 SLP134 T01720150
KDCA 270652Z 00000KT 10SM BKN055 18/14 A2992 RMK AO2 SLP132 T01780144
KDCA 270552Z 02003KT 10SM BKN060 18/14 A2992 RMK AO2 SLP132 T01780139 10228 20172 52006
KDCA 270452Z 21003KT 10SM BKN060 17/14 A2991 RMK AO2 SLP129 T01720139 402560144
KDCA 270352Z 00000KT 10SM FEW065 19/13 A2992 RMK AO2 SLP129 T01940128
KDCA 270252Z 35003KT 10SM CLR 20/12 A2991 RMK AO2 SLP126 T02000122 51017
KDCA 270152Z 35004KT 10SM CLR 21/13 A2989 RMK AO2 SLP122 T02060128
KDCA 270052Z 34009KT 10SM FEW080 SCT250 21/13 A2988 RMK AO2 SLP116 T02110128
KDCA 262352Z 35008KT 10SM SCT060 SCT080 SCT250 23/13 A2986 RMK AO2 SLP109 T02280128 10256 20228 53024
KDCA 262252Z 33011G19KT 10SM SCT060 BKN075 24/12 A2983 RMK AO2 PK WND 30033/2220 SLP100 T02390122
KDCA 262152Z 31009G19KT 10SM BKN060 BKN075 24/12 A2981 RMK AO2 PK WND 27028/2133 SLP092 T02390122
KDCA 262052Z 29016G24KT 10SM BKN065 BKN075 24/12 A2979 RMK AO2 SLP086 T02390117 53008
KDCA 261952Z 30014G22KT 10SM BKN060 BKN070 24/13 A2977 RMK AO2 SLP081 T02390128
KDCA 261852Z 29016G28KT 10SM BKN060 BKN070 24/13 A2977 RMK AO2 PK WND 28028/1848 SLP081 T02440128
KDCA 261752Z 30017G24KT 10SM SCT055 BKN070 25/13 A2976 RMK AO2 SLP077 T02500128 10256 20178 58001
KDCA 261652Z 29017G25KT 10SM SCT045 SCT065 BKN090 BKN250 24/15 A2976 RMK AO2 SLP078 T02390150
KDCA 261552Z 27014G21KT 10SM SCT040 BKN070 BKN095 BKN250 22/14 A2977 RMK AO2 PK WND 31027/1533 SLP082 T02170144
KDCA 261452Z 26013KT 10SM SCT035 BKN050 BKN095 22/15 A2976 RMK AO2 SLP078 T02170150 51017
KDCA 261352Z 26011KT 10SM FEW050 BKN095 21/14 A2975 RMK AO2 SLP074 T02110144
KDCA 261252Z 25009KT 10SM FEW065 SCT100 21/15 A2974 RMK AO2 SLP069 T02110150
KDCA 261152Z 24009KT 10SM FEW060 SCT110 18/14 A2971 RMK AO2 SLP061 70025 T01780144 10178 20144 51026
KDCA 261052Z 23008KT 10SM BKN060 BKN080 16/13 A2969 RMK AO2 SLP054 T01610133
KDCA 260952Z 23006KT 10SM BKN070 BKN085 16/13 A2967 RMK AO2 SLP045 T01560133
KDCA 260852Z 22006KT 10SM BKN090 16/14 A2964 RMK AO2 SLP035 T01560139 51018
KDCA 260752Z 21005KT 10SM BKN120 14/14 A2962 RMK AO2 SLP031 T01440139
KDCA 260652Z 20006KT 10SM FEW020 15/14 A2961 RMK AO2 SLP026 T01500139
KDCA 260552Z 21003KT 10SM FEW100 15/14 A2959 RMK AO2 SLP017 60004 T01500144 10172 20150 51013
KDCA 260452Z 23006KT 10SM FEW100 16/15 A2957 RMK AO2 SLP014 T01560150 402390144
KDCA 260352Z 24004KT 10SM FEW011 BKN100 16/15 A2956 RMK AO2 SLP010 T01610150
KDCA 260252Z 24003KT 10SM FEW011 BKN100 16/15 A2955 RMK AO2 SLP005 60004 T01610150 53013
KDCA 260152Z 24006KT 10SM FEW030 BKN095 OVC110 16/15 A2952 RMK AO2 RAE02 SLP996 OCNL LTGIC DSNT SE CB DSNT SE MOV E P0000 T01610150
KDCA 260052Z 15006KT 10SM -RA FEW030 OVC095 17/15 A2947 RMK AO2 LTG DSNT NW-NE SLP978 BINOVC SW-N OCNL LTGIC DSNT S CB DSNT S MOV E P0004 T01670150
KDCA 260010Z 23004KT 8SM -RA SCT042 OVC055 17/15 A2949 RMK AO2 LTG DSNT NW P0003 T01670150
KDCA 252359Z 25007KT 6SM -RA BR SCT042 OVC050 17/16 A2951 RMK AO2 VIS S 2 1/2 P0001 T01670156
KDCA 252352Z 26010KT 10SM -RA SCT043 BKN055 OVC100 17/15 A2951 RMK AO2 TSE02 SLP992 P0002 60019 T01720150 10239 20167 51022
KDCA 252303Z 34009KT 9SM -RA SCT035 OVC090 17/16 A2948 RMK AO2 LTG DSNT SW TSE02 P0001 T01720156
KDCA 252252Z 33011KT 8SM -TSRA SCT035CB OVC080 17/16 A2948 RMK AO2 PK WND 20030/2153 LTG DSNT SW TSE28B43 PRESRR SLP982 OCNL LTGICCCCG VC NE TS NE MOV NE P0015 T01670156
KDCA 252244Z 35003KT 6SM TSRA BR SCT035CB OVC080 17/15 A2946 RMK AO2 PK WND 20030/2153 LTG DSNT SW TSE28B43 OCNL LTGICCCCG NE TS NE MOV NE P0013 T01670150
KDCA 252229Z 07004KT 6SM RA BR BKN070 OVC085 17/15 A2946 RMK AO2 PK WND 20030/2153 TSE28 P0010 T01720150
KDCA 252215Z 13009KT 6SM -TSRA BR FEW026 BKN041CB OVC070 17/15 A2947 RMK AO2 PK WND 20030/2153 OCNL LTGICCCCG N-E TS N-E MOV NE P0006 T01720150 $
KDCA 252202Z 19010G30KT 4SM -TSRA BR SCT024 BKN037CB OVC085 17/16 A2948 RMK AO2 PK WND 20030/2153 LTG DSNT NE OCNL LTGICCCCG ALQDS TS ALQDS MOV NE P0004 T01720156 $
KDCA 252152Z 20022G31KT 2 1/2SM +TSRA FEW037 BKN044CB OVC090 19/16 A2948 RMK AO2 PK WND 20031/2148 RAB13 TSE11B12 PRESRR SLP982 OCNL LTGICCCCG ALQDS TS ALQDS MOV NE P0002 T01940161 $
KDCA 252136Z 23010KT 8SM -TSRA BKN050CB BKN090 OVC110 22/16 A2946 RMK AO2 LTG DSNT NE-SE RAB13 TSE11B12 OCNL LTGICCC ALQDS TS ALQDS MOV NE P0001 T02170161 $
KDCA 252120Z 22006KT 10SM -TSRA BKN047CB BKN100 OVC120 22/14 A2944 RMK AO2 LTG DSNT ALQDS RAB13 TSE11B12 OCNL LTGICCCCG SE-SW TS SE-SW MOV NE P0000 T02220144
KDCA 252105Z 21007KT 10SM TS BKN045CB BKN120 OVC250 23/14 A2944 RMK AO2 LTG DSNT ALQDS OCNL LTGICCCCG VC S TS S MOV NE CB DSNT SE-SW MOV NE T02280144
KDCA 252052Z 22007KT 10SM TS BKN043 BKN250 23/16 A2945 RMK AO2 LTG DSNT ALQDS TSB02E47B49 SLP971 CB DSNT SE-SW MOV NE T02280156 56022
KDCA 252042Z 19008KT 10SM TS SCT040 SCT100 BKN250 23/15 A2944 RMK AO2 LTG DSNT ALQDS TSB02 CB DSNT SE-W MOV NE T02280150
KDCA 252004Z 17007KT 10SM TS SCT040 SCT100 SCT250 24/16 A2944 RMK AO2 LTG DSNT S-NW TSB02 CB DSNT S-W MOV NE T02390161
KDCA 251952Z 19008KT 10SM VCTS SCT040 SCT100 SCT250 23/16 A2945 RMK AO2 LTG DSNT S-W SLP971 CB DSNT S AND DSNT SW MOV NE T02330156
KDCA 251944Z 19010KT 10SM VCTS SCT040 SCT250 23/16 A2945 RMK AO2 LTG DSNT S-W CB DSNT S AND DSNT SW MOV NE T02330156
KDCA 251852Z 17008KT 10SM SCT026 SCT036 SCT100 BKN250 23/17 A2948 RMK AO2 SLP981 T02280172
KDCA 251752Z 17009KT 10SM BKN026 BKN033 21/17 A2951 RMK AO2 SLP993 60002 T02060167 10217 20156 50001
KDCA 251652Z 23008KT 10SM BKN023 21/16 A2951 RMK AO2 SLP994 T02110161
KDCA 251552Z 21010KT 10SM OVC018 19/17 A2952 RMK AO2 SLP995 OCNL BINOVC T01940167
KDCA 251539Z 24007KT 10SM OVC016 19/17 A2952 RMK AO2 OCNL BINOVC T01940167
KDCA 251504Z 23005KT 10SM BKN010 OVC014 18/17 A2951 RMK AO2 T01830172
KDCA 251452Z 26005KT 7SM BKN008 OVC014 18/17 A2951 RMK AO2 SLP991 60002 T01830167 53011
KDCA 251424Z 31003KT 4SM BR OVC008 17/16 A2950 RMK AO2 T01720161
KDCA 251352Z 31006KT 4SM BR OVC006 17/16 A2950 RMK AO2 RAE12 SLP988 P0001 T01670161
KDCA 251322Z 35005KT 3SM BR OVC006 16/16 A2949 RMK AO2 RAE12 P0001 T01610161
KDCA 251252Z 35008KT 2SM R01/5000VP6000FT -RA BR OVC006 16/16 A2948 RMK AO2 RAE12B34 SLP983 P0001 T01610156
KDCA 251211Z 04008KT 3SM -RA BR OVC007 16/16 A2947 RMK AO2 P0000 T01560156
KDCA 251205Z 05007KT 2 1/2SM R01/6000VP6000FT -RA BR OVC008 16/15 A2946 RMK AO2 P0000 T01560150
KDCA 251152Z 05007KT 5SM -RA BR OVC008 16/15 A2948 RMK AO2 SLP981 P0022 60045 70069 T01560150 10156 20144 56014
KDCA 251123Z 05008KT 6SM -RA BR OVC008 16/15 A2949 RMK AO2 P0021 T01560150
KDCA 251116Z 05010KT 3SM -RA BR OVC008 16/14 A2949 RMK AO2 P0021 T01560144
KDCA 251114Z 05008KT 2 1/2SM R01/4500VP6000FT -RA BR OVC008 16/14 A2949 RMK AO2 P0021 T01560144
KDCA 251102Z 08005KT 1 1/4SM R01/3500VP6000FT +RA BR OVC008 15/14 A2950 RMK AO2 P0007 T01500144
KDCA 251052Z 06005KT 2SM RA BR OVC008 15/14 A2950 RMK AO2 SLP987 P0005 T01500144
KDCA 251038Z 07008KT 6SM -RA BR OVC008 15/14 A2950 RMK AO2 P0005 T01500144
KDCA 251023Z 08006KT 6SM -RA BR OVC007 15/14 A2950 RMK AO2 P0005 T01500139
KDCA 251007Z VRB05KT 5SM -RA BR OVC008 14/14 A2950 RMK AO2 P0005 T01440144
KDCA 250955Z COR 08010KT 2SM R01/6000FT -RA BR OVC008 14/14 A2950 RMK AO2 P0000 T01440139
KDCA 250952Z 08009KT 5SM -RA BR OVC007 14/14 A2950 RMK AO2 DZB13E39RAB39 SLP988 P0002 T01440139
KDCA 250929Z 07012KT 5SM -DZ BR OVC007 14/14 A2950 RMK AO2 DZB13 P0001 T01440139
KDCA 250913Z 07010KT 4SM -DZ BR OVC008 14/14 A2951 RMK AO2 DZB13 P0000 T01440139
KDCA 250852Z 07010KT 7SM OVC009 14/14 A2952 RMK AO2 RAE23 SLP995 P0002 60016 T01440139 56033
KDCA 250752Z 07014KT 5SM RA BR OVC009 14/14 A2954 RMK AO2 PRESFR SLP002 P0005 T01440139
KDCA 250652Z 08007G17KT 6SM -RA BR OVC008 14/14 A2959 RMK AO2 SLP017 P0009 T01440139
KDCA 250642Z 08011KT 4SM +RA BR OVC008 14/14 A2959 RMK AO2 P0008 T01440139
KDCA 250621Z 08010KT 6SM -RA BR OVC008 14/14 A2961 RMK AO2 P0001 T01440139
KDCA 250605Z 09012KT 5SM -RA BR OVC010 14/14 A2961 RMK AO2 P0001 T01440139
KDCA 250552Z 07013KT 4SM -RA BR OVC009 14/14 A2962 RMK AO2 SLP028 P0005 60024 T01440139 10189 20144 58030
KDCA 250516Z 07012G19KT 6SM -RA BR OVC009 14/14 A2964 RMK AO2 P0000 T01440139
KDCA 250506Z 08012KT 8SM -RA OVC009 15/14 A2965 RMK AO2 P0000 T01500139
KDCA 250452Z 09010KT 8SM -RA OVC010 15/14 A2966 RMK AO2 SLP044 P0002 T01500139 401890144
KDCA 250438Z 07009KT 8SM -RA OVC010 15/14 A2967 RMK AO2 P0002 T01500139
KDCA 250405Z 07008KT 6SM -RA BR BKN013 BKN021 OVC100 15/14 A2969 RMK AO2 P0001 T01500144
KDCA 250403Z 07007KT 6SM -RA BR SCT013 BKN021 OVC100 15/14 A2968 RMK AO2 P0001 T01500144
KDCA 250401Z 08008KT 10SM -RA BKN016 BKN041 OVC100 15/14 A2968 RMK AO2 P0001 T01500144
KDCA 250352Z 06009KT 5SM -RA BR SCT015 BKN039 OVC095 15/14 A2968 RMK AO2 SLP051 P0017 T01500144
KDCA 250341Z 06010KT 5SM RA BR SCT015 BKN033 OVC100 15/14 A2969 RMK AO2 P0016 T01500144
KDCA 250338Z 07011KT 4SM +RA BR SCT012 BKN019 OVC095 15/14 A2969 RMK AO2 PRESFR P0015 T01500139
KDCA 250321Z 15010KT 4SM RA BR OVC013 16/14 A2973 RMK AO2 P0005 T01560144
KDCA 250252Z 09011KT 10SM -RA OVC016 17/14 A2971 RMK AO2 RAB47 SLP058 P0000 60000 T01670139 58004
KDCA 250152Z 10011G18KT 10SM OVC018 17/14 A2972 RMK AO2 LTG DSNT SE SLP062 T01720139
KDCA 250057Z 09008KT 10SM BKN021 OVC046 17/14 A2971 RMK AO2 T01720139
KDCA 250052Z 10010G19KT 10SM SCT021 OVC046 18/14 A2971 RMK AO2 SLP059 T01780139
KDCA 250022Z 10013G19KT 10SM SCT022 SCT028 OVC047 18/14 A2972 RMK AO2 T01780139
KDCA 242352Z 12009KT 10SM OVC022 18/14 A2972 RMK AO2 SLP062 T01830144 10183 20178 55003
KDCA 242327Z 11013G17KT 10SM BKN026 OVC043 18/14 A2972 RMK AO2 T01830144
KDCA 242252Z 13011KT 10SM FEW025 SCT030 OVC043 18/14 A2971 RMK AO2 SLP061 T01830144
KDCA 242152Z 12010KT 10SM FEW021 SCT025 OVC030 18/14 A2972 RMK AO2 SLP062 T01830144
KDCA 242123Z 13008KT 10SM SCT021 SCT025 OVC032 18/15 A2972 RMK AO2 T01830150
KDCA 242052Z 12011KT 10SM OVC019 18/14 A2973 RMK AO2 SLP065 T01780144 58005